Terminal Aerodrome Forecast
Issued by NWS Des Moines, IA

Home | Current Version | Previous Version | Text Only | Print | Product List | Glossary On
Versions: 1 2 3 4 5 6 7 8 9 10 11 12 13 14 15 16 17 18 19 20 21 22 23 24 25 26 27 28 29 30 31 32 33 34 35 36 37 38 39
000
FTUS43 KDMX 230335 AAA
TAFALO
TAF AMD
KALO 230335Z 2304/2324 18011KT P6SM SCT008 BKN014
     FM230500 18012KT 6SM BR SCT004 SCT008 OVC012
     FM230700 18011KT 3SM BR BKN003 OVC010
     FM231000 17008KT 2SM -DZ BR SCT001 BKN004 OVC010
      TEMPO 2311/2313 1SM BR SCT001 BKN003 OVC010
     FM231400 16009KT 3SM -RA BR BKN003 OVC009
     FM232000 30006KT 5SM BR SCT003 BKN008 OVC015=

USA.gov is the U.S. government's official web portal to all federal, state and local government web resources and services.